Portada
METAR-TAF:

METAR-TAF

Aeroports :

Posadas, Argentina

latitud: 27-22S, longitud: 055-58W, altitud: 131 m

Observació

L'informe es va fer fa 47 minuts, a les 12:00 UTC
Vent 5 kt del Oest
Temperatura 19°C
Humitat 100%
Pressió 1012 hPa
Visibilitat: 8000 m
Escasses núvols a una alçada de 800 ft
Cel ennuvolat a una alçada de 10000 ft

METAR: SARP 121200Z 27005KT 8000 FEW008 BKN100 19/19 Q1012

Hora: 09:47 (12:47 UTC)

Pronòstic

L'informe es va fer fa 1 hora i 47 minuts, a les 11:00 UTC
Pronòstic vàlid del 12 a les 12 UTC al 13 a les 12 UTC
Vent 5 kt del Oest/Sud-Oest
Visibilitat: 8000 m
Escasses núvols a una alçada de 500 ft
Cel ennuvolat a una alçada de 10000 ft
Evolucionant progressivament
l' 12 a les 13 UTC al 12 a les 15 UTC
Visibilitat 10 km o més
sense núvols per sota de 1500 mi sense presència de cumulonimbus.

TAF: SARP 121100Z 1212/1312 25005KT 8000 FEW005 BKN100 TX27/1219Z TN14/1310Z BECMG 1213/1215 CAVOK

Observacions i pronòstics meteorològics de més de 4000 aeroports (METAR i TAF).

Les estacions disponibles són els punts grocs i vermells al mapa.

Posi el ratolí al punt desitjat per veure el nom de l'estació.

Feu clic per veure les observacions i els pronòstics meteorològics.

Per canviar el mapa: feu clic els botons verds amb una creu de color negre per apropar; al botó verd amb un guió per allunyar la imatge; o en les fletxes verdes per a mapes adjacents.


METAR-TAF: